ENHD Airport Information

Runway Information
Runway 14 Length 6957 ft width 148 ft
Elevation 61 ft Threshold 197 ft Heading 134
Runway 32 Length 6957 ft Width 148 ft
Elevation 86 ft Threshold 197 ft Heading 314
Airport Frequencies
Type ATIS Name ATIS Frequency 118.175 MHZ
Type TWR Name TWR Frequency 120.5 MHZ
Airport Navaids
Type VOR-DME Name Karmoy Frequency 115150 KHZ
Airport Weather Information & NOTAM
ADDS - METARS form results

(0456 UTC 20 February 2019)
Data provider http://aviationweather.gov/metar/data/
 
METAR text: ENHD 200450Z AUTO 14005KT 9999 OVC034/// 03/02 Q1010
Conditions at: ENHD (HAUGESUND/KARMOY, NO) observed 0450 UTC 20 February 2019
Temperature: 3.0°C (37°F)
Dewpoint: 2.0°C (36°F) [RH = 93%]
Pressure (altimeter): 29.82 inches Hg (1010.0 mb)
Winds: from the SE (140 degrees) at 6 MPH (5 knots; 2.6 m/s)
Visibility: 6 or more miles (10+ km)
Ceiling: 3400 feet AGL
Clouds: overcast cloud deck at 3400 feet AGL
Weather: no significant weather observed at this time

METAR text: ENHD 200420Z AUTO 15004KT 9000 OVC035/// 02/01 Q1010
Conditions at: ENHD (HAUGESUND/KARMOY, NO) observed 0420 UTC 20 February 2019
Temperature: 2.0°C (36°F)
Dewpoint: 1.0°C (34°F) [RH = 93%]
Pressure (altimeter): 29.82 inches Hg (1010.0 mb)
Winds: from the SSE (150 degrees) at 5 MPH (4 knots; 2.1 m/s)
Visibility: 6 miles ( 9 km)
Ceiling: 3500 feet AGL
Clouds: overcast cloud deck at 3500 feet AGL
Weather: no significant weather observed at this time

Forecast for: ENHD (HAUGESUND/KARMOY, NO)
Text: TAF ENHD 200200Z 2004/2012 VRB05KT CAVOK
Forecast period: 0400 to 0700 UTC 20 February 2019
Forecast type: FROM: standard forecast or significant change
Winds: variable direction winds at 6 MPH (5 knots; 2.6 m/s)
Visibility: 6 or more miles 10+ km)
Ceiling: unknown
Clouds: missing
Weather: NSW  (no significant weather)
Text: PROB30 2004/2007 0500 FG VV003
Forecast period: 0400 to 0700 UTC 20 February 2019
Forecast type: PROBABLE: 30 percent likelihood of the following during this time
Visibility: 0.31 miles (0.50 km)
Ceiling: indefinite ceiling with vertical visibility of 300 feet AGL
Clouds: obscured sky
Weather: FG  (fog)
Text: BECMG 2007/2009 16015KT
Forecast period: 0700 to 1000 UTC 20 February 2019
Forecast type: BECOMING: Conditions expected to become as follows by 0900 UTC 20 February 2019
Winds: from the SSE (160 degrees) at 17 MPH (15 knots; 7.7 m/s)
Visibility: 6 or more miles 10+ km)
Ceiling: unknown
Clouds: missing
Weather: NSW  (no significant weather)
Text: BECMG 2010/2012 9000 BKN014
Forecast period: 1000 to 1200 UTC 20 February 2019
Forecast type: BECOMING: Conditions expected to become as follows by 1200 UTC 20 February 2019
Winds: from the SSE (160 degrees) at 17 MPH (15 knots; 7.7 m/s)
Visibility: 6 miles (9 km)
Ceiling: 1400 feet AGL
Clouds: broken clouds at 1400 feet AGL
Weather: NSW  (no significant weather)